createdAt,value
2019-03-02T00:00:18.896Z,0.30
2019-03-02T00:01:18.903Z,0.20
2019-03-02T00:02:20.550Z,0.20
2019-03-02T00:03:18.908Z,0.30
2019-03-02T00:04:18.908Z,0.30
2019-03-02T00:05:20.890Z,0.30
2019-03-02T00:06:18.914Z,0.20
2019-03-02T00:07:18.918Z,0.30
2019-03-02T00:08:21.873Z,0.30
2019-03-02T00:09:18.924Z,0.30
2019-03-02T00:10:18.927Z,0.30
2019-03-02T00:11:20.677Z,0.30
2019-03-02T00:12:18.933Z,0.30
2019-03-02T00:13:18.936Z,0.30
2019-03-02T00:14:19.408Z,0.30
2019-03-02T00:15:18.994Z,0.30
2019-03-02T00:16:18.957Z,0.20
2019-03-02T00:17:20.072Z,0.20
2019-03-02T00:18:18.952Z,0.30
2019-03-02T00:19:18.956Z,0.40
2019-03-02T00:20:19.256Z,0.20
2019-03-02T00:21:18.962Z,0.20
2019-03-02T00:22:18.964Z,0.20
2019-03-02T00:23:19.783Z,0.20
2019-03-02T00:24:18.973Z,0.20
2019-03-02T00:25:18.975Z,0.30
2019-03-02T00:26:18.976Z,0.30
2019-03-02T00:27:21.299Z,0.20
2019-03-02T00:28:18.983Z,0.20
2019-03-02T00:29:18.986Z,0.20
2019-03-02T00:30:21.183Z,0.20
2019-03-02T00:31:18.994Z,0.30
2019-03-02T00:32:18.995Z,0.30
2019-03-02T00:33:19.731Z,0.30
2019-03-02T00:34:19.001Z,0.20
2019-03-02T00:35:19.005Z,0.30
2019-03-02T00:36:19.460Z,0.20
2019-03-02T00:37:19.010Z,0.30
2019-03-02T00:38:19.014Z,0.30
2019-03-02T00:39:19.927Z,0.30
2019-03-02T00:40:19.020Z,0.20
2019-03-02T00:41:19.026Z,0.30
2019-03-02T00:42:19.026Z,0.20
2019-03-02T00:43:19.031Z,0.30
2019-03-02T00:44:19.032Z,0.30
2019-03-02T00:45:19.035Z,0.30
2019-03-02T00:46:20.652Z,0.30
2019-03-02T00:47:19.042Z,0.20
2019-03-02T00:48:19.045Z,0.20
2019-03-02T00:49:19.583Z,0.30
2019-03-02T00:50:19.053Z,0.30
2019-03-02T00:51:19.105Z,0.30
2019-03-02T00:52:20.496Z,0.20
2019-03-02T00:53:19.110Z,0.30
2019-03-02T00:54:19.062Z,0.30
2019-03-02T00:55:19.066Z,0.30
2019-03-02T00:56:19.121Z,0.30
2019-03-02T00:57:19.710Z,0.30
2019-03-02T00:58:19.078Z,0.30
2019-03-02T00:59:19.078Z,0.30
2019-03-02T01:00:19.085Z,0.30
2019-03-02T01:01:19.085Z,0.30
2019-03-02T01:02:19.093Z,0.30
2019-03-02T01:03:19.091Z,0.30
2019-03-02T01:04:19.093Z,0.40
2019-03-02T01:05:19.098Z,0.20
2019-03-02T01:06:19.105Z,0.40
2019-03-02T01:07:20.729Z,0.40
2019-03-02T01:08:19.104Z,0.30
2019-03-02T01:09:19.108Z,0.20
2019-03-02T01:10:22.601Z,0.30
2019-03-02T01:11:19.115Z,0.30
2019-03-02T01:12:19.118Z,0.20
2019-03-02T01:13:20.124Z,0.30
2019-03-02T01:14:19.126Z,0.30
2019-03-02T01:15:19.181Z,0.30
2019-03-02T01:16:20.046Z,0.30
2019-03-02T01:17:19.133Z,0.40
2019-03-02T01:18:21.118Z,0.30
2019-03-02T01:19:19.142Z,0.30
2019-03-02T01:20:19.142Z,0.30
2019-03-02T01:21:19.144Z,0.40
2019-03-02T01:22:19.150Z,0.30
2019-03-02T01:23:19.152Z,0.30
2019-03-02T01:24:19.155Z,0.30
2019-03-02T01:25:19.169Z,0.30
2019-03-02T01:26:20.654Z,0.20
2019-03-02T01:27:19.166Z,0.30
2019-03-02T01:28:19.169Z,0.20
2019-03-02T01:29:20.370Z,0.20
2019-03-02T01:30:19.205Z,0.30
2019-03-02T01:31:19.176Z,0.20
2019-03-02T01:32:19.179Z,0.30
2019-03-02T01:33:19.183Z,0.30
2019-03-02T01:34:19.185Z,0.20
2019-03-02T01:35:20.020Z,0.30
2019-03-02T01:36:19.192Z,0.30
2019-03-02T01:37:19.196Z,0.30
2019-03-02T01:38:19.571Z,0.30
2019-03-02T01:39:19.201Z,0.30
2019-03-02T01:40:19.204Z,0.40
2019-03-02T01:41:19.208Z,0.30
2019-03-02T01:42:19.214Z,0.20
2019-03-02T01:43:19.213Z,0.30
2019-03-02T01:44:19.215Z,0.30
2019-03-02T01:45:19.224Z,0.30
2019-03-02T01:46:19.224Z,0.30
2019-03-02T01:47:19.226Z,0.30
2019-03-02T01:48:19.227Z,0.30
2019-03-02T01:49:19.232Z,0.30
2019-03-02T01:50:19.239Z,0.30
2019-03-02T01:51:19.734Z,0.30
2019-03-02T01:52:19.240Z,0.30
2019-03-02T01:53:19.244Z,0.30
2019-03-02T01:54:21.252Z,0.30
2019-03-02T01:55:19.250Z,0.30
2019-03-02T01:56:19.254Z,0.40
2019-03-02T01:57:19.255Z,0.30
2019-03-02T01:58:19.259Z,0.40
2019-03-02T01:59:19.263Z,0.40
2019-03-02T02:00:19.314Z,0.40
2019-03-02T02:01:20.881Z,0.30
2019-03-02T02:02:19.271Z,0.30
2019-03-02T02:03:19.276Z,0.20
2019-03-02T02:04:22.768Z,0.30
2019-03-02T02:05:19.280Z,0.40
2019-03-02T02:06:19.285Z,0.30
2019-03-02T02:07:19.434Z,0.40
2019-03-02T02:08:19.290Z,0.40
2019-03-02T02:09:19.294Z,0.40
2019-03-02T02:10:19.349Z,0.40
2019-03-02T02:11:19.298Z,0.30
2019-03-02T02:12:19.300Z,0.30
2019-03-02T02:13:19.304Z,0.40
2019-03-02T02:14:19.875Z,0.30
2019-03-02T02:15:19.363Z,0.30
2019-03-02T02:16:19.311Z,0.40
2019-03-02T02:17:19.316Z,0.30
2019-03-02T02:18:19.320Z,0.30
2019-03-02T02:19:19.322Z,0.30
2019-03-02T02:20:19.325Z,0.40
2019-03-02T02:21:19.329Z,0.30
2019-03-02T02:22:19.333Z,0.30
2019-03-02T02:23:19.338Z,0.30
2019-03-02T02:24:21.769Z,0.30
2019-03-02T02:25:19.340Z,0.30
2019-03-02T02:26:19.344Z,0.30
2019-03-02T02:27:22.557Z,0.40
2019-03-02T02:28:19.351Z,0.30
2019-03-02T02:29:19.356Z,0.40
2019-03-02T02:30:24.310Z,0.30
2019-03-02T02:31:19.362Z,0.50
2019-03-02T02:32:23.815Z,0.30
2019-03-02T02:33:19.365Z,0.40
2019-03-02T02:34:22.339Z,0.30
2019-03-02T02:35:19.371Z,0.30
2019-03-02T02:36:20.377Z,0.30
2019-03-02T02:37:19.376Z,0.30
2019-03-02T02:38:19.380Z,0.40
2019-03-02T02:39:19.384Z,0.30
2019-03-02T02:40:19.395Z,0.40
2019-03-02T02:41:23.153Z,0.30
2019-03-02T02:42:19.399Z,0.30
2019-03-02T02:43:21.060Z,0.40
2019-03-02T02:44:19.398Z,0.40
2019-03-02T02:45:19.515Z,0.30
2019-03-02T02:46:19.407Z,0.30
2019-03-02T02:47:19.424Z,0.40
2019-03-02T02:48:19.410Z,0.40
2019-03-02T02:49:19.414Z,0.40
2019-03-02T02:50:27.930Z,0.40
2019-03-02T02:51:19.419Z,0.40
2019-03-02T02:52:27.641Z,0.30
2019-03-02T02:53:19.424Z,0.40
2019-03-02T02:54:23.348Z,0.40
2019-03-02T02:55:19.433Z,0.30
2019-03-02T02:56:21.374Z,0.40
2019-03-02T02:57:19.437Z,0.40
2019-03-02T02:58:19.542Z,0.40
2019-03-02T02:59:19.444Z,0.40
2019-03-02T03:00:19.446Z,0.40
2019-03-02T03:01:19.498Z,0.40
2019-03-02T03:02:19.452Z,0.40
2019-03-02T03:03:20.692Z,0.40
2019-03-02T03:04:19.460Z,0.40
2019-03-02T03:05:19.466Z,0.40
2019-03-02T03:06:19.513Z,0.40
2019-03-02T03:07:19.475Z,0.40
2019-03-02T03:08:19.476Z,0.50
2019-03-02T03:09:19.477Z,0.40
2019-03-02T03:10:23.405Z,0.30
2019-03-02T03:11:19.484Z,0.40
2019-03-02T03:12:22.955Z,0.40
2019-03-02T03:13:19.509Z,0.50
2019-03-02T03:14:20.278Z,0.40
2019-03-02T03:15:19.490Z,0.40
2019-03-02T03:16:19.493Z,0.40
2019-03-02T03:17:19.497Z,0.40
2019-03-02T03:18:19.506Z,0.30
2019-03-02T03:19:19.504Z,0.40
2019-03-02T03:20:19.507Z,0.50
2019-03-02T03:21:27.301Z,0.30
2019-03-02T03:22:19.525Z,0.40
2019-03-02T03:23:24.494Z,0.40
2019-03-02T03:24:19.523Z,0.50
2019-03-02T03:25:19.641Z,0.30
2019-03-02T03:26:19.523Z,0.50
2019-03-02T03:27:19.577Z,0.50
2019-03-02T03:28:19.630Z,0.40
2019-03-02T03:29:19.533Z,0.50
2019-03-02T03:30:33.012Z,0.50
2019-03-02T03:31:23.234Z,0.40
2019-03-02T03:32:19.543Z,0.50
2019-03-02T03:33:19.556Z,0.50
2019-03-02T03:34:28.447Z,0.30
2019-03-02T03:35:20.152Z,0.50
2019-03-02T03:36:19.556Z,0.30
2019-03-02T03:37:19.558Z,0.50
2019-03-02T03:38:19.561Z,0.50
2019-03-02T03:39:19.573Z,0.50
2019-03-02T03:40:20.274Z,0.50
2019-03-02T03:41:19.569Z,0.50
2019-03-02T03:42:23.050Z,0.50
2019-03-02T03:43:19.577Z,0.50
2019-03-02T03:44:25.709Z,0.50
2019-03-02T03:45:19.783Z,0.40
2019-03-02T03:46:22.503Z,0.40
2019-03-02T03:47:19.588Z,0.50
2019-03-02T03:48:19.595Z,0.50
2019-03-02T03:49:19.594Z,0.40
2019-03-02T03:50:19.597Z,0.40
2019-03-02T03:51:19.605Z,0.50
2019-03-02T03:52:19.602Z,0.60
2019-03-02T03:53:21.880Z,0.50
2019-03-02T03:54:19.871Z,0.50
2019-03-02T03:55:24.910Z,0.50
2019-03-02T03:56:19.615Z,0.50
2019-03-02T03:57:21.670Z,0.50
2019-03-02T03:58:19.620Z,0.50
2019-03-02T03:59:20.674Z,0.50
2019-03-02T04:00:19.626Z,0.50
2019-03-02T04:01:19.630Z,0.40
2019-03-02T04:02:19.633Z,0.50
2019-03-02T04:03:19.636Z,0.40
2019-03-02T04:04:19.638Z,0.40
2019-03-02T04:05:19.644Z,0.40
2019-03-02T04:06:23.479Z,0.40
2019-03-02T04:07:19.648Z,0.40
2019-03-02T04:08:24.396Z,0.60
2019-03-02T04:09:19.654Z,0.50
2019-03-02T04:10:25.757Z,0.40
2019-03-02T04:11:19.721Z,0.50
2019-03-02T04:12:24.318Z,0.50
2019-03-02T04:13:19.665Z,0.60
2019-03-02T04:14:23.294Z,0.50
2019-03-02T04:15:19.723Z,0.50
2019-03-02T04:16:20.590Z,0.40
2019-03-02T04:17:19.678Z,0.50
2019-03-02T04:18:19.680Z,0.40
2019-03-02T04:19:19.684Z,0.50
2019-03-02T04:20:19.686Z,0.40
2019-03-02T04:21:23.531Z,0.50
2019-03-02T04:22:19.690Z,0.60
2019-03-02T04:23:21.994Z,0.40
2019-03-02T04:24:19.698Z,0.50
2019-03-02T04:25:19.813Z,0.50
2019-03-02T04:26:19.706Z,0.40
2019-03-02T04:27:19.708Z,0.50
2019-03-02T04:28:19.867Z,0.60
2019-03-02T04:29:21.805Z,0.50
2019-03-02T04:30:19.717Z,0.50
2019-03-02T04:31:19.719Z,0.50
2019-03-02T04:32:27.067Z,0.50
2019-03-02T04:33:19.725Z,0.40
2019-03-02T04:34:21.262Z,0.60
2019-03-02T04:35:19.732Z,0.60
2019-03-02T04:36:19.732Z,0.40
2019-03-02T04:37:20.258Z,0.40
2019-03-02T04:38:19.740Z,0.50
2019-03-02T04:39:19.744Z,0.50
2019-03-02T04:40:23.374Z,0.50
2019-03-02T04:41:19.798Z,0.50
2019-03-02T04:42:19.751Z,0.50
2019-03-02T04:43:19.967Z,0.60
2019-03-02T04:44:19.907Z,0.50
2019-03-02T04:45:19.810Z,0.60
2019-03-02T04:46:19.767Z,0.50
2019-03-02T04:47:22.558Z,0.50
2019-03-02T04:48:19.769Z,0.60
2019-03-02T04:49:19.821Z,0.50
2019-03-02T04:50:19.775Z,0.50
2019-03-02T04:51:19.778Z,0.60
2019-03-02T04:52:19.881Z,0.70
2019-03-02T04:53:21.507Z,0.60
2019-03-02T04:54:19.786Z,0.50
2019-03-02T04:55:19.790Z,0.50
2019-03-02T04:56:20.564Z,0.50
2019-03-02T04:57:19.794Z,0.50
2019-03-02T04:58:19.800Z,0.50
2019-03-02T04:59:21.992Z,0.70
2019-03-02T05:00:19.856Z,0.60
2019-03-02T05:01:19.807Z,0.50
2019-03-02T05:02:20.520Z,0.60
2019-03-02T05:03:19.814Z,0.60
2019-03-02T05:04:19.816Z,0.50
2019-03-02T05:05:19.820Z,0.40
2019-03-02T05:06:19.861Z,0.50
2019-03-02T05:07:19.877Z,0.80
2019-03-02T05:08:19.828Z,0.60
2019-03-02T05:09:19.832Z,0.50
2019-03-02T05:10:19.837Z,0.50
2019-03-02T05:11:19.836Z,0.60
2019-03-02T05:12:19.841Z,0.50
2019-03-02T05:13:19.843Z,0.60
2019-03-02T05:14:19.846Z,0.60
2019-03-02T05:15:19.852Z,0.50
2019-03-02T05:16:19.852Z,0.40
2019-03-02T05:17:19.955Z,0.60
2019-03-02T05:18:19.858Z,0.70
2019-03-02T05:19:19.862Z,0.60
2019-03-02T05:20:19.864Z,0.60
2019-03-02T05:21:19.868Z,0.70
2019-03-02T05:22:19.881Z,0.50
2019-03-02T05:23:19.873Z,0.50
2019-03-02T05:24:19.878Z,0.50
2019-03-02T05:25:20.189Z,0.60
2019-03-02T05:26:19.882Z,0.60
2019-03-02T05:27:19.884Z,0.50
2019-03-02T05:28:19.887Z,0.60
2019-03-02T05:29:19.894Z,0.70
2019-03-02T05:30:19.893Z,0.60
2019-03-02T05:31:19.897Z,0.60
2019-03-02T05:32:19.903Z,0.80
2019-03-02T05:33:19.903Z,0.60
2019-03-02T05:34:19.905Z,0.70
2019-03-02T05:35:19.909Z,0.60
2019-03-02T05:36:22.982Z,0.60
2019-03-02T05:37:19.915Z,0.60
2019-03-02T05:38:19.917Z,0.60
2019-03-02T05:39:19.920Z,0.60
2019-03-02T05:40:19.921Z,0.60
2019-03-02T05:41:19.926Z,0.70
2019-03-02T05:42:19.928Z,0.50
2019-03-02T05:43:19.933Z,0.60
2019-03-02T05:44:19.935Z,0.60
2019-03-02T05:45:23.462Z,0.80
2019-03-02T05:46:21.958Z,0.60
2019-03-02T05:47:19.944Z,0.60
2019-03-02T05:48:19.996Z,0.50
2019-03-02T05:49:19.952Z,0.50
2019-03-02T05:50:19.953Z,0.60
2019-03-02T05:51:19.957Z,0.70
2019-03-02T05:52:19.958Z,0.70
2019-03-02T05:53:19.962Z,0.60
2019-03-02T05:54:19.966Z,0.50
2019-03-02T05:55:19.970Z,0.50
2019-03-02T05:56:19.970Z,0.60
2019-03-02T05:57:19.974Z,0.60
2019-03-02T05:58:19.976Z,0.50
2019-03-02T05:59:22.877Z,0.50
2019-03-02T06:00:20.083Z,0.60
2019-03-02T06:01:19.986Z,0.60
2019-03-02T06:02:19.988Z,0.60
2019-03-02T06:03:19.991Z,0.60
2019-03-02T06:04:22.007Z,0.60
2019-03-02T06:05:19.998Z,0.80
2019-03-02T06:06:20.050Z,0.70
2019-03-02T06:07:20.004Z,0.50
2019-03-02T06:08:20.006Z,0.60
2019-03-02T06:09:20.008Z,0.60
2019-03-02T06:10:21.716Z,0.50
2019-03-02T06:11:20.019Z,0.60
2019-03-02T06:12:20.019Z,0.70
2019-03-02T06:13:20.026Z,0.60
2019-03-02T06:14:20.024Z,0.60
2019-03-02T06:15:20.036Z,0.60
2019-03-02T06:16:21.941Z,0.60
2019-03-02T06:17:20.036Z,0.60
2019-03-02T06:18:20.039Z,0.60
2019-03-02T06:19:23.331Z,0.60
2019-03-02T06:20:20.040Z,0.70
2019-03-02T06:21:20.054Z,0.60
2019-03-02T06:22:21.098Z,0.70
2019-03-02T06:23:20.056Z,0.60
2019-03-02T06:24:20.052Z,0.60
2019-03-02T06:25:21.453Z,0.60
2019-03-02T06:26:20.091Z,0.50
2019-03-02T06:27:20.063Z,0.70
2019-03-02T06:28:23.050Z,0.70
2019-03-02T06:29:20.067Z,0.70
2019-03-02T06:30:20.075Z,0.60
2019-03-02T06:31:20.089Z,0.70
2019-03-02T06:32:20.081Z,0.70
2019-03-02T06:33:20.081Z,0.70
2019-03-02T06:34:20.672Z,0.70
2019-03-02T06:35:20.185Z,0.60
2019-03-02T06:36:20.146Z,0.60
2019-03-02T06:37:20.826Z,0.70
2019-03-02T06:38:20.097Z,0.60
2019-03-02T06:39:20.100Z,0.60
2019-03-02T06:40:23.539Z,0.60
2019-03-02T06:41:20.103Z,0.70
2019-03-02T06:42:20.106Z,0.60
2019-03-02T06:43:21.855Z,0.50
2019-03-02T06:44:20.113Z,0.60
2019-03-02T06:45:20.115Z,0.50
2019-03-02T06:46:23.265Z,0.70
2019-03-02T06:47:20.120Z,0.60
2019-03-02T06:48:20.123Z,0.60
2019-03-02T06:49:21.189Z,0.70
2019-03-02T06:50:20.131Z,0.60
2019-03-02T06:51:20.135Z,0.70
2019-03-02T06:52:25.204Z,0.60
2019-03-02T06:53:20.138Z,0.70
2019-03-02T06:54:21.958Z,0.60
2019-03-02T06:55:20.952Z,0.60
2019-03-02T06:56:20.185Z,0.60
2019-03-02T06:57:20.161Z,0.60
2019-03-02T06:58:22.636Z,0.50
2019-03-02T06:59:20.159Z,0.60
2019-03-02T07:00:20.363Z,0.70
2019-03-02T07:01:20.737Z,0.60
2019-03-02T07:02:20.165Z,0.70
2019-03-02T07:03:20.168Z,0.60
2019-03-02T07:04:21.984Z,0.60
2019-03-02T07:05:20.174Z,0.70
2019-03-02T07:06:20.181Z,0.60
2019-03-02T07:07:21.813Z,0.70
2019-03-02T07:08:20.184Z,0.60
2019-03-02T07:09:20.235Z,0.60
2019-03-02T07:10:21.761Z,0.80
2019-03-02T07:11:20.194Z,0.70
2019-03-02T07:12:20.194Z,0.70
2019-03-02T07:13:21.157Z,0.50
2019-03-02T07:14:20.200Z,0.80
2019-03-02T07:15:20.204Z,0.80
2019-03-02T07:16:20.826Z,0.60
2019-03-02T07:17:20.213Z,0.60
2019-03-02T07:18:20.212Z,0.60
2019-03-02T07:19:20.219Z,0.70
2019-03-02T07:20:20.217Z,0.60
2019-03-02T07:21:20.220Z,0.60
2019-03-02T07:22:20.225Z,0.60
2019-03-02T07:23:20.227Z,0.70
2019-03-02T07:24:20.229Z,0.60
2019-03-02T07:25:20.237Z,0.50
2019-03-02T07:26:20.913Z,0.60
2019-03-02T07:27:20.238Z,0.70
2019-03-02T07:28:20.242Z,0.80
2019-03-02T07:29:20.243Z,0.80
2019-03-02T07:30:20.249Z,0.60
2019-03-02T07:31:20.251Z,0.80
2019-03-02T07:32:20.252Z,0.60
2019-03-02T07:33:20.268Z,0.70
2019-03-02T07:34:20.259Z,0.70
2019-03-02T07:35:20.619Z,0.60
2019-03-02T07:36:20.265Z,0.60
2019-03-02T07:37:20.267Z,0.70
2019-03-02T07:38:21.498Z,0.70
2019-03-02T07:39:20.273Z,0.70
2019-03-02T07:40:20.277Z,0.70
2019-03-02T07:41:22.137Z,0.70
2019-03-02T07:42:20.284Z,0.70
2019-03-02T07:43:20.285Z,0.70
2019-03-02T07:44:22.292Z,0.80
2019-03-02T07:45:20.291Z,0.60
2019-03-02T07:46:20.298Z,0.90
2019-03-02T07:47:20.624Z,0.80
2019-03-02T07:48:20.306Z,0.80
2019-03-02T07:49:20.302Z,0.60
2019-03-02T07:50:21.911Z,0.80
2019-03-02T07:51:20.310Z,0.60
2019-03-02T07:52:20.312Z,0.80
2019-03-02T07:53:20.317Z,0.70
2019-03-02T07:54:20.318Z,0.70
2019-03-02T07:55:22.491Z,0.70
2019-03-02T07:56:20.322Z,0.80
2019-03-02T07:57:20.328Z,0.60
2019-03-02T07:58:20.891Z,0.70
2019-03-02T07:59:20.332Z,0.80
2019-03-02T08:00:20.333Z,0.90
2019-03-02T08:01:20.437Z,0.80
2019-03-02T08:02:20.343Z,0.70
2019-03-02T08:03:20.349Z,0.60
2019-03-02T08:04:20.351Z,0.80
2019-03-02T08:05:20.350Z,0.80
2019-03-02T08:06:21.883Z,0.60
2019-03-02T08:07:20.356Z,0.70
2019-03-02T08:08:20.358Z,0.80
2019-03-02T08:09:21.917Z,0.90
2019-03-02T08:10:20.366Z,0.70
2019-03-02T08:11:20.375Z,0.60
2019-03-02T08:12:20.863Z,0.70
2019-03-02T08:13:20.373Z,0.70
2019-03-02T08:14:20.376Z,0.90
2019-03-02T08:15:24.470Z,0.80
2019-03-02T08:16:20.382Z,0.70
2019-03-02T08:17:20.436Z,0.70
2019-03-02T08:18:21.619Z,0.80
2019-03-02T08:19:20.391Z,0.70
2019-03-02T08:20:23.890Z,0.60
2019-03-02T08:21:20.394Z,0.90
2019-03-02T08:22:20.399Z,0.80
2019-03-02T08:23:20.402Z,0.80
2019-03-02T08:24:20.404Z,0.70
2019-03-02T08:25:20.409Z,0.60
2019-03-02T08:26:22.416Z,0.60
2019-03-02T08:27:20.514Z,0.70
2019-03-02T08:28:20.417Z,0.70
2019-03-02T08:29:20.996Z,0.70
2019-03-02T08:30:20.422Z,0.80
2019-03-02T08:31:20.427Z,0.70
2019-03-02T08:32:21.222Z,0.70
2019-03-02T08:33:20.432Z,0.60
2019-03-02T08:34:20.434Z,0.60
2019-03-02T08:35:20.437Z,0.80
2019-03-02T08:36:20.447Z,0.60
2019-03-02T08:37:20.448Z,0.60
2019-03-02T08:38:20.446Z,0.70
2019-03-02T08:39:20.450Z,0.60
2019-03-02T08:40:23.216Z,0.80
2019-03-02T08:41:20.455Z,0.60
2019-03-02T08:42:20.458Z,0.60
2019-03-02T08:43:20.461Z,0.70
2019-03-02T08:44:20.461Z,0.70
2019-03-02T08:45:20.466Z,0.60
2019-03-02T08:46:20.468Z,0.60
2019-03-02T08:47:20.472Z,0.60
2019-03-02T08:48:20.478Z,0.70
2019-03-02T08:49:20.483Z,0.70
2019-03-02T08:50:20.480Z,0.60
2019-03-02T08:51:20.484Z,0.80
2019-03-02T08:52:20.487Z,0.70
2019-03-02T08:53:20.492Z,0.70
2019-03-02T08:54:21.519Z,0.70
2019-03-02T08:55:20.496Z,0.80
2019-03-02T08:56:20.501Z,0.60
2019-03-02T08:57:23.098Z,0.80
2019-03-02T08:58:22.500Z,0.80
2019-03-02T08:59:20.507Z,0.70
2019-03-02T09:00:20.557Z,0.70
2019-03-02T09:01:20.513Z,0.70
2019-03-02T09:02:20.516Z,0.70
2019-03-02T09:03:20.519Z,0.70
2019-03-02T09:04:20.522Z,0.70
2019-03-02T09:05:26.041Z,0.50
2019-03-02T09:06:20.531Z,0.80
2019-03-02T09:07:20.533Z,0.60
2019-03-02T09:08:20.540Z,0.70
2019-03-02T09:09:20.536Z,0.60
2019-03-02T09:10:21.703Z,0.70
2019-03-02T09:11:20.546Z,0.70
2019-03-02T09:12:21.779Z,0.80
2019-03-02T09:13:20.547Z,0.70
2019-03-02T09:14:20.604Z,0.70
2019-03-02T09:15:22.190Z,0.80
2019-03-02T09:16:20.557Z,0.90
2019-03-02T09:17:20.559Z,0.70
2019-03-02T09:18:20.562Z,0.60
2019-03-02T09:19:23.999Z,0.60
2019-03-02T09:20:20.567Z,0.70
2019-03-02T09:21:20.572Z,0.60
2019-03-02T09:22:20.884Z,0.80
2019-03-02T09:23:20.579Z,0.60
2019-03-02T09:24:20.579Z,0.60
2019-03-02T09:25:24.022Z,0.60
2019-03-02T09:26:20.639Z,0.70
2019-03-02T09:27:20.589Z,0.80
2019-03-02T09:28:20.591Z,0.70
2019-03-02T09:29:20.596Z,0.80
2019-03-02T09:30:20.598Z,0.70
2019-03-02T09:31:26.062Z,0.70
2019-03-02T09:32:20.602Z,0.80
2019-03-02T09:33:24.836Z,0.60
2019-03-02T09:34:20.608Z,0.70
2019-03-02T09:35:20.715Z,0.70
2019-03-02T09:36:20.613Z,0.70
2019-03-02T09:37:20.618Z,0.70
2019-03-02T09:38:21.186Z,0.60
2019-03-02T09:39:20.625Z,0.70
2019-03-02T09:40:20.625Z,0.70
2019-03-02T09:41:21.975Z,0.60
2019-03-02T09:42:20.633Z,0.90
2019-03-02T09:43:20.636Z,0.60
2019-03-02T09:44:20.637Z,0.50
2019-03-02T09:45:20.641Z,0.70
2019-03-02T09:46:21.230Z,0.60
2019-03-02T09:47:20.648Z,0.50
2019-03-02T09:48:20.961Z,0.70
2019-03-02T09:49:20.652Z,0.70
2019-03-02T09:50:21.706Z,0.80
2019-03-02T09:51:20.662Z,0.60
2019-03-02T09:52:20.661Z,0.70
2019-03-02T09:53:20.664Z,0.80
2019-03-02T09:54:20.666Z,0.70
2019-03-02T09:55:21.106Z,0.70
2019-03-02T09:56:20.672Z,0.70
2019-03-02T09:57:20.676Z,0.70
2019-03-02T09:58:24.382Z,0.60
2019-03-02T09:59:20.682Z,0.70
2019-03-02T10:00:23.769Z,0.60
2019-03-02T10:01:20.689Z,0.80
2019-03-02T10:02:20.690Z,0.60
2019-03-02T10:03:23.104Z,0.60
2019-03-02T10:04:20.697Z,0.50
2019-03-02T10:05:20.699Z,0.70
2019-03-02T10:06:21.792Z,0.70
2019-03-02T10:07:22.753Z,0.60
2019-03-02T10:08:20.757Z,0.70
2019-03-02T10:09:21.945Z,0.60
2019-03-02T10:10:20.713Z,0.70
2019-03-02T10:11:20.768Z,0.80
2019-03-02T10:12:20.717Z,0.80
2019-03-02T10:13:20.723Z,0.60
2019-03-02T10:14:24.295Z,0.60
2019-03-02T10:15:20.729Z,0.60
2019-03-02T10:16:20.730Z,0.50
2019-03-02T10:17:20.734Z,0.70
2019-03-02T10:18:20.745Z,0.50
2019-03-02T10:19:20.742Z,0.60
2019-03-02T10:20:20.745Z,0.80
2019-03-02T10:21:20.746Z,0.70
2019-03-02T10:22:23.417Z,0.50
2019-03-02T10:23:20.751Z,0.60
2019-03-02T10:24:20.752Z,0.80
2019-03-02T10:25:20.757Z,0.60
2019-03-02T10:26:20.761Z,0.60
2019-03-02T10:27:21.194Z,0.60
2019-03-02T10:28:20.766Z,0.50
2019-03-02T10:29:20.771Z,0.60
2019-03-02T10:30:22.129Z,0.50
2019-03-02T10:31:20.876Z,0.70
2019-03-02T10:32:20.776Z,0.50
2019-03-02T10:33:20.781Z,0.70
2019-03-02T10:34:20.785Z,0.60
2019-03-02T10:35:20.790Z,0.60
2019-03-02T10:36:20.789Z,0.50
2019-03-02T10:37:20.792Z,0.60
2019-03-02T10:38:20.800Z,0.60
2019-03-02T10:39:20.799Z,0.60
2019-03-02T10:40:23.028Z,0.60
2019-03-02T10:41:21.589Z,0.60
2019-03-02T10:42:20.808Z,0.70
2019-03-02T10:43:20.810Z,0.60
2019-03-02T10:44:21.351Z,0.60
2019-03-02T10:45:20.816Z,0.60
2019-03-02T10:46:20.818Z,0.50
2019-03-02T10:47:20.823Z,0.60
2019-03-02T10:48:20.928Z,0.60
2019-03-02T10:49:20.831Z,0.50
2019-03-02T10:50:23.467Z,0.50
2019-03-02T10:51:20.833Z,0.70
2019-03-02T10:52:20.835Z,0.60
2019-03-02T10:53:24.082Z,0.50
2019-03-02T10:54:20.846Z,0.60
2019-03-02T10:55:20.853Z,0.70
2019-03-02T10:56:24.669Z,0.80
2019-03-02T10:57:20.850Z,0.70
2019-03-02T10:58:20.853Z,0.70
2019-03-02T10:59:20.857Z,0.70
2019-03-02T11:00:20.959Z,0.60
2019-03-02T11:01:20.861Z,0.90
2019-03-02T11:02:21.045Z,0.70
2019-03-02T11:03:20.868Z,0.70
2019-03-02T11:04:20.871Z,0.80
2019-03-02T11:05:21.125Z,0.90
2019-03-02T11:06:20.885Z,0.80
2019-03-02T11:07:20.880Z,0.90
2019-03-02T11:08:21.781Z,0.80
2019-03-02T11:09:22.542Z,0.90
2019-03-02T11:10:20.941Z,0.80
2019-03-02T11:11:20.942Z,0.90
2019-03-02T11:12:20.894Z,0.80
2019-03-02T11:13:20.902Z,0.90
2019-03-02T11:14:20.901Z,0.80
2019-03-02T11:15:20.904Z,0.80
2019-03-02T11:16:20.906Z,0.70
2019-03-02T11:17:23.070Z,0.60
2019-03-02T11:18:20.915Z,0.70
2019-03-02T11:19:20.918Z,0.70
2019-03-02T11:20:24.305Z,0.70
2019-03-02T11:21:21.023Z,0.70
2019-03-02T11:22:20.930Z,0.60
2019-03-02T11:23:23.165Z,0.70
2019-03-02T11:24:20.931Z,0.70
2019-03-02T11:25:20.934Z,0.60
2019-03-02T11:26:20.938Z,0.60
2019-03-02T11:27:20.941Z,0.60
2019-03-02T11:28:20.944Z,0.60
2019-03-02T11:29:21.286Z,0.60
2019-03-02T11:30:22.575Z,0.60
2019-03-02T11:31:20.953Z,0.80
2019-03-02T11:32:21.371Z,0.70
2019-03-02T11:33:20.962Z,0.60
2019-03-02T11:34:20.963Z,0.60
2019-03-02T11:35:20.966Z,0.60
2019-03-02T11:36:20.974Z,0.60
2019-03-02T11:37:22.011Z,0.90
2019-03-02T11:38:20.974Z,0.80
2019-03-02T11:39:21.178Z,0.60
2019-03-02T11:40:20.982Z,0.60
2019-03-02T11:41:21.112Z,0.70
2019-03-02T11:42:20.987Z,0.60
2019-03-02T11:43:20.994Z,0.60
2019-03-02T11:44:21.484Z,0.60
2019-03-02T11:45:20.995Z,0.60
2019-03-02T11:46:20.999Z,0.70
2019-03-02T11:47:21.011Z,0.70
2019-03-02T11:48:21.011Z,0.60
2019-03-02T11:49:29.989Z,0.60
2019-03-02T11:50:21.012Z,0.50
2019-03-02T11:51:23.990Z,0.70
2019-03-02T11:52:21.018Z,0.60
2019-03-02T11:53:21.022Z,0.60
2019-03-02T11:54:21.025Z,0.70
2019-03-02T11:55:21.033Z,0.70
2019-03-02T11:56:25.105Z,0.60
2019-03-02T11:57:22.038Z,0.60
2019-03-02T11:58:21.037Z,0.50
2019-03-02T11:59:21.042Z,0.50
2019-03-02T12:00:21.396Z,0.60
2019-03-02T12:01:21.047Z,0.50
2019-03-02T12:02:23.825Z,0.60
2019-03-02T12:03:21.053Z,0.60
2019-03-02T12:04:21.055Z,0.50
2019-03-02T12:05:21.058Z,0.50
2019-03-02T12:06:21.064Z,0.60
2019-03-02T12:07:21.065Z,0.50
2019-03-02T12:08:21.959Z,0.50
2019-03-02T12:09:21.070Z,0.60
2019-03-02T12:10:21.074Z,0.50
2019-03-02T12:11:21.078Z,0.60
2019-03-02T12:12:21.087Z,0.60
2019-03-02T12:13:21.088Z,0.70
2019-03-02T12:14:21.089Z,0.60
2019-03-02T12:15:21.141Z,0.60
2019-03-02T12:16:22.109Z,0.60
2019-03-02T12:17:21.095Z,0.60
2019-03-02T12:18:21.099Z,0.50
2019-03-02T12:19:21.104Z,0.50
2019-03-02T12:20:21.108Z,0.50
2019-03-02T12:21:22.078Z,0.40
2019-03-02T12:22:21.111Z,0.60
2019-03-02T12:23:21.115Z,0.50
2019-03-02T12:24:22.262Z,0.50
2019-03-02T12:25:21.120Z,0.50
2019-03-02T12:26:21.127Z,0.50
2019-03-02T12:27:22.331Z,0.50
2019-03-02T12:28:21.129Z,0.50
2019-03-02T12:29:21.135Z,0.40
2019-03-02T12:30:22.346Z,0.50
2019-03-02T12:31:21.141Z,0.50
2019-03-02T12:32:21.143Z,0.40
2019-03-02T12:33:22.137Z,0.50
2019-03-02T12:34:21.153Z,0.40
2019-03-02T12:35:21.153Z,0.50
2019-03-02T12:36:21.160Z,0.50
2019-03-02T12:37:21.159Z,0.50
2019-03-02T12:38:21.162Z,0.50
2019-03-02T12:39:23.859Z,0.50
2019-03-02T12:40:21.168Z,0.50
2019-03-02T12:41:21.170Z,0.50
2019-03-02T12:42:21.175Z,0.40
2019-03-02T12:43:21.279Z,0.40
2019-03-02T12:44:21.646Z,0.50
2019-03-02T12:45:21.185Z,0.50
2019-03-02T12:46:21.192Z,0.50
2019-03-02T12:47:21.195Z,0.40
2019-03-02T12:48:21.196Z,0.50
2019-03-02T12:49:21.197Z,0.50
2019-03-02T12:50:23.223Z,0.40
2019-03-02T12:51:21.203Z,0.50
2019-03-02T12:52:21.205Z,0.30
2019-03-02T12:53:24.576Z,0.40
2019-03-02T12:54:21.212Z,0.30
2019-03-02T12:55:21.891Z,0.40
2019-03-02T12:56:21.219Z,0.40
2019-03-02T12:57:21.222Z,0.30
2019-03-02T12:58:23.149Z,0.40
2019-03-02T12:59:21.230Z,0.40
2019-03-02T13:00:21.233Z,0.50
2019-03-02T13:01:21.235Z,0.50
2019-03-02T13:02:21.291Z,0.50
2019-03-02T13:03:22.287Z,0.40
2019-03-02T13:04:21.244Z,0.50
2019-03-02T13:05:22.514Z,0.40
2019-03-02T13:06:21.255Z,0.60
2019-03-02T13:07:21.253Z,0.40
2019-03-02T13:08:22.858Z,0.40
2019-03-02T13:09:21.260Z,0.50
2019-03-02T13:10:21.264Z,0.40
2019-03-02T13:11:21.266Z,0.50
2019-03-02T13:12:21.369Z,0.40
2019-03-02T13:13:21.513Z,0.50
2019-03-02T13:14:21.289Z,0.40
2019-03-02T13:15:21.286Z,0.40
2019-03-02T13:16:23.769Z,0.40
2019-03-02T13:17:22.568Z,0.40
2019-03-02T13:18:21.288Z,0.40